Terminal Aerodrome Forecast
Issued by NWS Melbourne, FL

Home | Current Version | Previous Version | Text Only | Print | Product List | Glossary On
Versions: 1 2 3 4 5 6 7 8 9 10 11 12 13 14 15 16 17 18 19 20 21 22 23 24 25 26
533
FTUS42 KMLB 230300 AAA
TAFMCO
TAF AMD
KMCO 230300Z 2303/2406 12005KT P6SM FEW030 SCT080 SCT140
     FM231400 13006KT P6SM SCT025 SCT100 BKN250
     FM231800 10009KT P6SM VCSH BKN035 BKN050
      TEMPO 2319/2322 3SM SHRA BKN025=

USA.gov is the U.S. government's official web portal to all federal, state and local government web resources and services.